Time;durP1;ratioP1;P1;durP2;ratioP2;P2;SDS_P1;SDS_P2;PMS_P1;PMS_P2;Temp;Humidity;BMP_temperature;BMP_pressure;BME280_temperature;BME280_humidity;BME280_pressure;Samples;Min_cycle;Max_cycle;Signal;HPM_P1;HPM_P2
2022/08/05 00:01:10;;;;;;;0.82;0.50;;;19.10;99.90;;;;;;4953482;28;20029;-74
2022/08/05 00:03:37;;;;;;;3.60;1.17;;;18.80;99.90;;;;;;4951528;29;20034;-76
2022/08/05 00:06:05;;;;;;;3.25;1.63;;;19.20;99.90;;;;;;4951638;28;20032;-76
2022/08/05 00:08:33;;;;;;;1.77;0.52;;;19.30;99.90;;;;;;4948424;28;20023;-77
2022/08/05 00:11:01;;;;;;;4.03;1.20;;;19.30;99.90;;;;;;4946211;28;20015;-72
2022/08/05 00:13:31;;;;;;;2.63;1.58;;;19.20;99.90;;;;;;4940710;28;20061;-75
2022/08/05 00:15:59;;;;;;;3.55;1.10;;;19.10;99.90;;;;;;4943926;28;20041;-76
2022/08/05 00:18:27;;;;;;;4.95;1.17;;;18.90;99.90;;;;;;4938834;29;20043;-75
2022/08/05 00:20:57;;;;;;;4.20;0.88;;;18.90;99.90;;;;;;4937840;28;20042;-75
2022/08/05 00:23:24;;;;;;;3.40;0.80;;;18.90;99.90;;;;;;4942274;29;20104;-74
2022/08/05 00:25:52;;;;;;;2.72;0.70;;;18.90;99.90;;;;;;4949061;28;20031;-73
2022/08/05 00:28:19;;;;;;;4.95;1.08;;;18.90;99.90;;;;;;4948018;28;20031;-75
2022/08/05 00:30:47;;;;;;;3.10;1.33;;;18.90;99.90;;;;;;4947184;28;20069;-76
2022/08/05 00:33:16;;;;;;;2.67;0.65;;;18.90;99.90;;;;;;4935871;28;20117;-78
2022/08/05 00:35:44;;;;;;;1.20;0.65;;;18.80;99.90;;;;;;4948734;28;20118;-74
2022/08/05 00:38:12;;;;;;;2.03;0.45;;;18.80;99.90;;;;;;4951503;29;20023;-76
2022/08/05 00:40:51;;;;;;;1.20;0.70;;;18.70;99.90;;;;;;4952495;29;20043;-78
2022/08/05 00:43:19;;;;;;;2.15;0.55;;;18.70;99.90;;;;;;4947074;28;20035;-78
2022/08/05 00:45:46;;;;;;;1.25;0.57;;;18.80;99.90;;;;;;4954864;28;20041;-76
2022/08/05 00:48:16;;;;;;;1.50;1.40;;;18.70;99.90;;;;;;4946173;28;20042;-80
2022/08/05 00:50:46;;;;;;;2.63;0.57;;;18.80;99.90;;;;;;4961900;28;20105;-81
2022/08/05 00:53:15;;;;;;;3.30;0.60;;;18.90;99.90;;;;;;4955050;28;20470;-84
2022/08/05 00:55:43;;;;;;;1.73;0.70;;;19.10;99.90;;;;;;4942943;28;20479;-80
2022/08/05 00:58:12;;;;;;;0.98;0.50;;;19.30;99.90;;;;;;4943038;28;20027;-80
2022/08/05 01:00:40;;;;;;;1.88;0.43;;;19.50;99.90;;;;;;4941453;29;20031;-81
2022/08/05 01:03:09;;;;;;;1.10;0.50;;;19.70;99.90;;;;;;4939966;28;20491;-83
2022/08/05 01:05:36;;;;;;;2.75;1.63;;;19.80;99.90;;;;;;4949490;29;20074;-80
2022/08/05 01:08:04;;;;;;;1.35;0.55;;;19.70;99.90;;;;;;4942757;28;20032;-81
2022/08/05 01:10:39;;;;;;;1.48;0.73;;;20.30;99.90;;;;;;4950226;28;20107;-78
2022/08/05 01:13:35;;;;;;;1.63;0.95;;;21.00;99.90;;;;;;4948051;28;20039;-81
2022/08/05 01:16:06;;;;;;;4.88;0.80;;;22.10;99.90;;;;;;4936716;29;20091;-84
2022/08/05 01:18:40;;;;;;;3.20;0.85;;;23.10;98.70;;;;;;4951986;28;20118;-85
2022/08/05 01:21:18;;;;;;;2.92;1.42;;;23.10;97.40;;;;;;4924921;28;20448;-84
2022/08/05 01:23:57;;;;;;;2.92;0.55;;;23.20;97.80;;;;;;4940406;29;20131;-85
2022/08/05 01:26:47;;;;;;;1.02;0.40;;;24.10;96.80;;;;;;4945662;29;20043;-84
2022/08/05 01:29:39;;;;;;;2.20;0.70;;;24.60;95.10;;;;;;4941722;28;20051;-86
2022/08/05 01:32:11;;;;;;;2.42;0.30;;;25.40;95.20;;;;;;4948263;28;20040;-81
2022/08/05 01:34:46;;;;;;;1.25;0.52;;;25.60;93.70;;;;;;4939817;28;20110;-81
2022/08/05 01:37:39;;;;;;;0.60;0.43;;;25.60;93.70;;;;;;4941008;28;20039;-78
2022/08/05 01:40:09;;;;;;;0.75;0.50;;;26.10;92.70;;;;;;4946466;29;20026;-85
2022/08/05 01:42:40;;;;;;;1.13;0.50;;;26.50;91.70;;;;;;4946169;28;20427;-81
2022/08/05 01:45:09;;;;;;;2.40;0.20;;;26.70;91.60;;;;;;4948047;28;20027;-81
2022/08/05 01:47:37;;;;;;;1.27;0.40;;;26.80;91.30;;;;;;4948111;29;20500;-83
2022/08/05 01:50:09;;;;;;;0.90;0.30;;;26.90;91.10;;;;;;4953756;28;20027;-84
2022/08/05 01:52:39;;;;;;;1.65;0.30;;;26.70;91.10;;;;;;4958474;28;20106;-83
2022/08/05 01:55:10;;;;;;;2.15;0.30;;;26.90;91.70;;;;;;4950421;29;20090;-84
2022/08/05 01:57:45;;;;;;;1.80;0.40;;;27.50;89.80;;;;;;4954393;28;20015;-85
2022/08/05 02:00:13;;;;;;;2.65;0.63;;;27.40;88.90;;;;;;4953859;28;20065;-83
2022/08/05 02:02:54;;;;;;;0.40;0.22;;;27.50;88.40;;;;;;4941830;28;20619;-80
2022/08/05 02:05:34;;;;;;;1.00;0.40;;;27.70;86.10;;;;;;4946248;29;20050;-79
2022/08/05 02:08:02;;;;;;;3.55;0.30;;;27.90;86.30;;;;;;4951066;28;20040;-86
2022/08/05 02:10:39;;;;;;;2.40;0.55;;;27.90;86.00;;;;;;4939161;28;20027;-83
2022/08/05 02:13:20;;;;;;;0.57;0.20;;;27.70;86.20;;;;;;4958352;28;20474;-86
2022/08/05 02:15:52;;;;;;;3.55;0.30;;;27.50;85.00;;;;;;4953916;28;20031;-82
2022/08/05 02:18:39;;;;;;;0.82;0.30;;;27.20;85.10;;;;;;4949740;28;20427;-80
2022/08/05 02:21:14;;;;;;;0.43;0.17;;;27.00;87.30;;;;;;4946668;29;20027;-82
2022/08/05 02:23:44;;;;;;;0.80;0.20;;;26.60;87.20;;;;;;4951225;28;20023;-80
2022/08/05 02:26:17;;;;;;;0.25;0.17;;;26.00;88.00;;;;;;4949706;28;20039;-83
2022/08/05 02:28:46;;;;;;;0.38;0.30;;;26.30;87.80;;;;;;4951842;29;20122;-78
2022/08/05 02:31:26;;;;;;;1.17;0.30;;;26.60;86.40;;;;;;4951457;29;20015;-80
2022/08/05 02:34:08;;;;;;;2.15;0.40;;;25.80;85.00;;;;;;4941807;28;20126;-83
2022/08/05 02:36:38;;;;;;;3.42;1.50;;;25.50;86.30;;;;;;4945911;29;20034;-77
2022/08/05 02:39:11;;;;;;;0.77;0.20;;;25.40;90.00;;;;;;4951758;28;20028;-80
2022/08/05 02:41:40;;;;;;;0.95;0.22;;;25.20;89.30;;;;;;4947430;28;21034;-82
2022/08/05 02:44:09;;;;;;;0.77;0.30;;;24.50;88.60;;;;;;4944990;28;20019;-81
2022/08/05 02:46:39;;;;;;;0.55;0.22;;;23.80;90.40;;;;;;4944819;28;20046;-80
2022/08/05 02:49:08;;;;;;;1.30;0.30;;;23.50;91.90;;;;;;4943776;29;20038;-80
2022/08/05 02:51:37;;;;;;;2.55;0.20;;;23.20;92.00;;;;;;4947594;28;20090;-78
2022/08/05 02:54:06;;;;;;;0.28;0.20;;;22.90;91.10;;;;;;4939200;29;20039;-80
2022/08/05 02:56:35;;;;;;;0.38;0.15;;;22.60;91.80;;;;;;4948858;28;20776;-89
2022/08/05 02:59:05;;;;;;;1.13;0.60;;;22.20;92.50;;;;;;4945769;28;20027;-83
2022/08/05 03:01:34;;;;;;;1.65;0.57;;;22.00;92.90;;;;;;4944155;28;20944;-88
2022/08/05 03:04:04;;;;;;;0.30;0.20;;;21.80;93.00;;;;;;4939938;28;20032;-81
2022/08/05 03:06:32;;;;;;;1.42;0.28;;;22.00;93.20;;;;;;4946181;28;20035;-84
2022/08/05 03:09:00;;;;;;;0.60;0.20;;;22.00;92.60;;;;;;4945276;29;20027;-85
2022/08/05 03:11:28;;;;;;;2.75;0.68;;;22.50;91.80;;;;;;4945720;28;20692;-89
2022/08/05 03:13:55;;;;;;;3.08;0.17;;;23.20;91.00;;;;;;4951451;29;20061;-90
2022/08/05 03:16:23;;;;;;;0.30;0.10;;;23.10;91.30;;;;;;4953652;28;20066;-80
2022/08/05 03:18:50;;;;;;;0.30;0.10;;;22.80;92.00;;;;;;4947062;29;20039;-85
2022/08/05 03:21:17;;;;;;;0.82;0.17;;;22.40;92.20;;;;;;4951390;28;20028;-89
2022/08/05 03:23:45;;;;;;;0.40;0.30;;;22.00;92.20;;;;;;4939623;28;20482;-86
2022/08/05 03:26:13;;;;;;;2.38;1.00;;;22.00;92.50;;;;;;4949996;28;20019;-86
2022/08/05 03:28:40;;;;;;;1.10;0.13;;;21.80;92.90;;;;;;4947347;29;20103;-88
2022/08/05 03:31:08;;;;;;;2.58;0.70;;;22.00;93.10;;;;;;4951334;28;20030;-85
2022/08/05 03:33:36;;;;;;;1.15;0.17;;;22.50;92.50;;;;;;4943963;28;20518;-85
2022/08/05 03:36:04;;;;;;;3.58;0.43;;;22.40;87.60;;;;;;4948597;28;20379;-85
2022/08/05 03:38:31;;;;;;;0.15;0.10;;;22.50;90.40;;;;;;4949235;29;20086;-90
2022/08/05 03:40:59;;;;;;;1.25;0.30;;;22.40;87.80;;;;;;4952096;28;20042;-87
2022/08/05 03:43:26;;;;;;;3.38;0.17;;;22.60;88.00;;;;;;4943528;29;20027;-84
2022/08/05 03:45:54;;;;;;;0.38;0.13;;;22.90;84.60;;;;;;4934716;28;20122;-90
2022/08/05 03:48:21;;;;;;;1.15;0.15;;;23.20;81.90;;;;;;4939761;28;20156;-85
2022/08/05 03:51:07;;;;;;;2.17;0.10;;;23.20;79.80;;;;;;4945581;28;20115;-85
2022/08/05 03:53:39;;;;;;;0.82;0.17;;;23.10;79.10;;;;;;4931893;28;21645;-83
2022/08/05 03:56:12;;;;;;;0.57;0.10;;;22.90;80.40;;;;;;4943649;28;20058;-85
2022/08/05 03:58:41;;;;;;;0.47;0.20;;;22.80;82.10;;;;;;4944678;28;20031;-81
2022/08/05 04:01:14;;;;;;;0.35;0.10;;;22.60;80.00;;;;;;4942362;28;20187;-80
2022/08/05 04:03:49;;;;;;;0.13;0.10;;;22.70;80.20;;;;;;4951896;29;20038;-88
2022/08/05 04:06:18;;;;;;;0.08;0.00;;;22.70;80.20;;;;;;4934158;29;20030;-82
2022/08/05 04:08:46;;;;;;;0.60;0.10;;;22.80;79.90;;;;;;4943447;28;20043;-81
2022/08/05 04:11:14;;;;;;;2.30;0.10;;;22.80;80.20;;;;;;4946320;28;20031;-78
2022/08/05 04:13:42;;;;;;;2.08;0.20;;;22.70;79.20;;;;;;4941026;28;20636;-86
2022/08/05 04:16:11;;;;;;;1.60;0.10;;;22.70;79.40;;;;;;4951059;28;20121;-90
2022/08/05 04:18:39;;;;;;;0.17;0.10;;;22.70;79.60;;;;;;4947886;28;20039;-91
2022/08/05 04:21:08;;;;;;;0.75;0.20;;;22.60;79.10;;;;;;4958034;28;20789;-83
2022/08/05 04:23:36;;;;;;;0.63;0.13;;;22.50;79.10;;;;;;4942152;28;20110;-79
2022/08/05 04:26:03;;;;;;;0.10;0.05;;;22.30;78.90;;;;;;4949438;28;20039;-83
2022/08/05 04:28:31;;;;;;;0.85;0.68;;;22.20;78.70;;;;;;4946844;28;20101;-83
2022/08/05 04:30:59;;;;;;;1.15;0.10;;;22.20;79.40;;;;;;4960887;28;20039;-77
2022/08/05 04:33:27;;;;;;;0.30;0.30;;;22.20;80.10;;;;;;4943475;28;20035;-77
2022/08/05 04:35:55;;;;;;;0.43;0.10;;;22.20;80.10;;;;;;4939333;28;20035;-88
2022/08/05 04:38:22;;;;;;;1.30;0.15;;;22.20;79.50;;;;;;4949122;29;20027;-88
2022/08/05 04:40:50;;;;;;;1.95;0.10;;;22.20;80.00;;;;;;4953227;28;20035;-82
2022/08/05 04:43:18;;;;;;;1.00;0.15;;;22.20;79.70;;;;;;4935314;29;20027;-88
2022/08/05 04:45:45;;;;;;;0.13;0.10;;;22.20;79.50;;;;;;4953478;28;20106;-84
2022/08/05 04:48:14;;;;;;;1.80;0.15;;;22.20;78.20;;;;;;4952597;28;20035;-81
2022/08/05 04:50:47;;;;;;;0.30;0.03;;;22.10;78.20;;;;;;4951249;28;20069;-79
2022/08/05 04:53:17;;;;;;;0.28;0.10;;;22.00;79.20;;;;;;4924634;29;20035;-88
2022/08/05 04:55:46;;;;;;;1.85;0.28;;;22.00;79.40;;;;;;4944010;28;20054;-81
2022/08/05 04:58:15;;;;;;;0.70;0.10;;;21.90;79.10;;;;;;4940618;28;20110;-83
2022/08/05 05:00:44;;;;;;;0.15;0.10;;;21.80;79.30;;;;;;4938044;28;20082;-84
2022/08/05 05:03:11;;;;;;;0.52;0.15;;;21.80;79.30;;;;;;4941799;29;20054;-80
2022/08/05 05:05:39;;;;;;;3.08;0.30;;;21.90;79.00;;;;;;4947147;28;20094;-81
2022/08/05 05:08:10;;;;;;;0.25;0.10;;;21.90;78.40;;;;;;4943878;28;20377;-81
2022/08/05 05:10:42;;;;;;;1.13;0.10;;;21.90;79.50;;;;;;4949686;28;20050;-80
2022/08/05 05:13:16;;;;;;;0.28;0.10;;;21.90;78.10;;;;;;4945588;28;20028;-79
2022/08/05 05:15:45;;;;;;;3.72;0.10;;;21.80;78.70;;;;;;4950710;28;20027;-80
2022/08/05 05:18:16;;;;;;;0.45;0.20;;;21.80;78.60;;;;;;4945044;29;20023;-84
2022/08/05 05:20:45;;;;;;;0.45;0.10;;;21.80;78.20;;;;;;4950329;28;20054;-79
2022/08/05 05:23:13;;;;;;;1.35;0.17;;;21.80;79.30;;;;;;4954350;28;20043;-81
2022/08/05 05:25:46;;;;;;;0.40;0.20;;;21.80;79.60;;;;;;4949619;29;20035;-74
2022/08/05 05:28:13;;;;;;;0.30;0.10;;;21.80;78.50;;;;;;4955041;28;20031;-79
2022/08/05 05:30:41;;;;;;;1.73;0.20;;;21.80;78.00;;;;;;4952916;28;20023;-78
2022/08/05 05:33:08;;;;;;;0.77;0.17;;;21.80;79.10;;;;;;4949777;28;20345;-82
2022/08/05 05:35:36;;;;;;;0.25;0.10;;;21.80;77.80;;;;;;4941493;28;20055;-84
2022/08/05 05:38:05;;;;;;;1.35;0.10;;;21.90;77.60;;;;;;4950240;28;20099;-85
2022/08/05 05:40:33;;;;;;;1.80;0.38;;;21.80;77.50;;;;;;4948081;28;20043;-84
2022/08/05 05:43:01;;;;;;;1.75;0.10;;;21.90;76.70;;;;;;4952532;28;20023;-91
2022/08/05 05:45:29;;;;;;;1.77;0.30;;;21.90;76.60;;;;;;4949796;28;20066;-84
2022/08/05 05:48:00;;;;;;;1.15;0.20;;;21.90;76.90;;;;;;4956008;28;20121;-82
2022/08/05 05:50:28;;;;;;;1.17;0.10;;;21.90;76.30;;;;;;4941970;28;20035;-80
2022/08/05 05:52:55;;;;;;;1.88;0.60;;;21.90;76.90;;;;;;4933254;29;20042;-77
2022/08/05 05:55:22;;;;;;;1.55;0.30;;;21.90;77.80;;;;;;4950230;28;20039;-87
2022/08/05 05:57:50;;;;;;;0.80;0.10;;;21.90;76.30;;;;;;4960017;28;20110;-87
2022/08/05 06:00:20;;;;;;;1.02;0.50;;;21.90;77.00;;;;;;4951748;28;20034;-88
2022/08/05 06:02:48;;;;;;;3.72;0.80;;;22.00;78.10;;;;;;4953680;28;20363;-83
2022/08/05 06:05:17;;;;;;;2.35;0.10;;;22.00;77.30;;;;;;4956354;28;20074;-79
2022/08/05 06:07:45;;;;;;;0.52;0.10;;;22.00;76.70;;;;;;4954272;28;20027;-78
2022/08/05 06:10:13;;;;;;;0.20;0.03;;;22.10;76.80;;;;;;4957564;28;20034;-80
2022/08/05 06:12:41;;;;;;;1.38;0.20;;;22.00;76.50;;;;;;4953451;28;20050;-80
2022/08/05 06:15:09;;;;;;;0.88;0.30;;;22.00;77.20;;;;;;4959724;28;20061;-86
2022/08/05 06:17:36;;;;;;;0.17;0.10;;;21.90;76.60;;;;;;4958986;28;20462;-81
2022/08/05 06:20:08;;;;;;;3.22;0.10;;;21.90;76.80;;;;;;4956516;28;20094;-84
2022/08/05 06:22:35;;;;;;;0.82;0.20;;;21.80;76.60;;;;;;4956015;29;20031;-83
2022/08/05 06:25:06;;;;;;;0.28;0.10;;;21.80;77.10;;;;;;4953681;28;20043;-87
2022/08/05 06:27:38;;;;;;;2.63;0.43;;;21.80;77.10;;;;;;4957797;28;20049;-84
2022/08/05 06:30:07;;;;;;;1.27;0.75;;;21.70;77.90;;;;;;4947818;28;20478;-80
2022/08/05 06:32:34;;;;;;;0.63;0.30;;;21.60;78.00;;;;;;4946490;28;20031;-78
2022/08/05 06:35:01;;;;;;;1.38;0.30;;;21.50;78.20;;;;;;4947747;28;20474;-80
2022/08/05 06:37:29;;;;;;;2.13;0.30;;;21.50;78.60;;;;;;4945907;28;20114;-84
2022/08/05 06:39:56;;;;;;;0.52;0.20;;;21.30;78.30;;;;;;4941629;28;20645;-85
2022/08/05 06:42:24;;;;;;;0.98;0.75;;;21.20;79.10;;;;;;4950676;28;20126;-84
2022/08/05 06:44:51;;;;;;;1.58;0.30;;;21.10;78.80;;;;;;4946832;28;20027;-81
2022/08/05 06:47:19;;;;;;;1.95;0.35;;;21.00;78.60;;;;;;4954503;28;20031;-82
2022/08/05 06:49:47;;;;;;;0.45;0.20;;;20.90;78.00;;;;;;4956534;28;20086;-88
2022/08/05 06:52:14;;;;;;;1.95;0.20;;;20.80;78.10;;;;;;4942016;29;20118;-81
2022/08/05 06:54:42;;;;;;;1.65;0.65;;;20.70;78.50;;;;;;4953761;28;20039;-84
2022/08/05 06:57:13;;;;;;;0.98;0.30;;;20.60;77.70;;;;;;4948367;28;20451;-79
2022/08/05 06:59:44;;;;;;;1.98;0.28;;;20.60;77.00;;;;;;4943708;28;20033;-79
2022/08/05 07:02:11;;;;;;;0.52;0.13;;;20.50;77.00;;;;;;4942371;28;20059;-89
2022/08/05 07:04:39;;;;;;;0.30;0.20;;;20.50;77.20;;;;;;4944544;28;20062;-78
2022/08/05 07:07:06;;;;;;;0.52;0.30;;;20.40;76.60;;;;;;4953215;28;20454;-79
2022/08/05 07:09:33;;;;;;;0.77;0.40;;;20.30;77.30;;;;;;4941686;28;20043;-78
2022/08/05 07:12:01;;;;;;;0.65;0.20;;;20.20;77.50;;;;;;4946132;28;20086;-81
2022/08/05 07:17:14;;;;;;;1.77;0.20;;;20.10;78.40;;;;;;4956773;28;20054;-88
2022/08/05 07:19:41;;;;;;;0.95;0.20;;;19.90;77.40;;;;;;4932370;28;20033;-81
2022/08/05 07:22:09;;;;;;;0.45;0.25;;;19.90;76.90;;;;;;4948293;28;20031;-81
2022/08/05 07:24:36;;;;;;;2.22;0.40;;;19.80;76.90;;;;;;4955320;28;20090;-88
2022/08/05 07:27:04;;;;;;;1.77;0.32;;;19.80;76.80;;;;;;4952638;28;20023;-86
2022/08/05 07:29:31;;;;;;;0.50;0.20;;;19.70;77.20;;;;;;4949137;28;20038;-80
2022/08/05 07:31:59;;;;;;;2.00;0.52;;;19.60;79.00;;;;;;4953296;28;20027;-86
2022/08/05 07:34:26;;;;;;;2.47;0.22;;;19.50;77.90;;;;;;4957599;28;20126;-76
2022/08/05 07:36:53;;;;;;;1.65;0.40;;;19.40;79.20;;;;;;4956352;28;20033;-85
2022/08/05 07:39:21;;;;;;;1.80;0.35;;;19.30;78.60;;;;;;4943081;29;20553;-83
2022/08/05 07:41:48;;;;;;;0.28;0.20;;;19.20;79.60;;;;;;4959814;29;20038;-88
2022/08/05 07:44:16;;;;;;;0.40;0.30;;;19.00;80.00;;;;;;4958030;29;20514;-80
2022/08/05 07:46:44;;;;;;;2.90;0.50;;;18.90;80.40;;;;;;4954476;29;20074;-77
2022/08/05 07:49:12;;;;;;;0.40;0.20;;;18.80;80.40;;;;;;4942717;28;20030;-80
2022/08/05 07:51:40;;;;;;;0.88;0.25;;;18.80;78.70;;;;;;4950703;28;20098;-78
2022/08/05 07:54:08;;;;;;;1.70;0.30;;;18.70;79.60;;;;;;4937766;28;20043;-78
2022/08/05 07:56:37;;;;;;;0.43;0.20;;;18.70;80.00;;;;;;4941268;28;20043;-79
2022/08/05 07:59:04;;;;;;;0.50;0.30;;;18.70;80.80;;;;;;4946002;28;20031;-78
2022/08/05 08:01:32;;;;;;;0.95;0.30;;;18.60;80.60;;;;;;4951640;28;20031;-80
2022/08/05 08:03:59;;;;;;;0.65;0.20;;;18.60;79.10;;;;;;4942573;29;20032;-79
2022/08/05 08:06:27;;;;;;;0.40;0.20;;;18.60;78.70;;;;;;4951561;28;20359;-81
2022/08/05 08:08:54;;;;;;;0.38;0.20;;;18.70;78.40;;;;;;4947880;29;20024;-80
2022/08/05 08:11:21;;;;;;;0.60;0.20;;;18.70;78.90;;;;;;4950487;29;20080;-80
2022/08/05 08:13:50;;;;;;;1.13;0.40;;;18.70;79.10;;;;;;4949095;29;20043;-80
2022/08/05 08:16:17;;;;;;;0.98;0.80;;;18.60;78.70;;;;;;4940829;28;20482;-80
2022/08/05 08:18:44;;;;;;;3.22;0.65;;;18.60;78.80;;;;;;4941538;29;20077;-80
2022/08/05 08:21:12;;;;;;;1.70;1.08;;;18.50;78.90;;;;;;4945426;28;20046;-81
2022/08/05 08:23:39;;;;;;;2.30;0.60;;;18.40;79.40;;;;;;4926211;28;20118;-81
2022/08/05 08:26:07;;;;;;;1.73;0.90;;;18.30;80.00;;;;;;4947954;28;20034;-81
2022/08/05 08:28:34;;;;;;;1.60;0.90;;;18.20;80.40;;;;;;4946180;28;20395;-83
2022/08/05 08:31:02;;;;;;;2.53;1.20;;;18.00;80.60;;;;;;4945445;28;20039;-84
2022/08/05 08:33:29;;;;;;;5.22;1.60;;;17.90;80.90;;;;;;4951042;29;20035;-84
2022/08/05 08:35:57;;;;;;;3.25;1.10;;;17.90;81.10;;;;;;4948063;28;20039;-85
2022/08/05 08:38:24;;;;;;;4.20;0.90;;;17.90;81.10;;;;;;4936396;29;20036;-85
2022/08/05 08:40:52;;;;;;;2.67;0.50;;;17.90;81.20;;;;;;4944238;28;20500;-81
2022/08/05 08:43:20;;;;;;;0.47;0.30;;;17.90;81.20;;;;;;4945953;29;20031;-84
2022/08/05 08:45:52;;;;;;;1.30;0.60;;;18.00;81.30;;;;;;4916280;29;20028;-81
2022/08/05 08:48:20;;;;;;;2.33;0.60;;;18.00;81.40;;;;;;4933753;29;20035;-84
2022/08/05 08:50:48;;;;;;;3.80;0.75;;;17.90;81.90;;;;;;4948283;28;20551;-80
2022/08/05 08:53:18;;;;;;;3.83;0.85;;;17.80;82.50;;;;;;4941779;29;20402;-81
2022/08/05 08:55:46;;;;;;;3.70;1.20;;;17.60;82.90;;;;;;4945266;29;20781;-83
2022/08/05 08:58:16;;;;;;;3.78;0.65;;;17.50;83.40;;;;;;4950378;28;20047;-81
2022/08/05 09:00:44;;;;;;;3.80;0.90;;;17.40;83.80;;;;;;4931266;29;20042;-81
2022/08/05 09:03:12;;;;;;;2.83;1.13;;;17.30;84.30;;;;;;4947588;29;20138;-82
2022/08/05 09:05:39;;;;;;;2.92;0.70;;;17.20;84.70;;;;;;4945143;28;20174;-84
2022/08/05 09:08:07;;;;;;;1.70;0.60;;;17.10;85.00;;;;;;4948211;29;20031;-83
2022/08/05 09:10:34;;;;;;;1.58;0.52;;;17.10;85.00;;;;;;4950907;28;20037;-79
2022/08/05 09:13:02;;;;;;;2.08;0.70;;;17.10;85.00;;;;;;4946845;28;20051;-83
2022/08/05 09:15:29;;;;;;;2.17;0.60;;;17.00;85.30;;;;;;4946889;28;20055;-81
2022/08/05 09:17:57;;;;;;;2.17;0.85;;;17.00;86.10;;;;;;4936504;28;20035;-84
2022/08/05 09:20:24;;;;;;;2.72;0.70;;;16.80;86.00;;;;;;4947469;28;20035;-82
2022/08/05 09:23:16;;;;;;;2.15;0.73;;;16.60;86.30;;;;;;4916274;29;20024;-80
2022/08/05 09:25:49;;;;;;;1.77;0.40;;;16.60;86.40;;;;;;4944086;28;20026;-82
2022/08/05 09:28:22;;;;;;;0.55;0.45;;;16.60;86.20;;;;;;4947026;29;20063;-80
2022/08/05 09:30:54;;;;;;;1.73;0.75;;;16.60;86.30;;;;;;4942059;28;20039;-81
2022/08/05 09:33:24;;;;;;;0.73;0.52;;;16.50;86.70;;;;;;4943780;29;20040;-80
2022/08/05 09:36:09;;;;;;;2.47;0.57;;;16.40;86.40;;;;;;4943214;28;20057;-80
2022/08/05 09:38:36;;;;;;;1.02;0.40;;;16.40;86.70;;;;;;4946396;28;20051;-79
2022/08/05 09:41:07;;;;;;;1.27;0.32;;;16.40;86.50;;;;;;4931075;29;20028;-80
2022/08/05 09:43:36;;;;;;;1.60;0.30;;;16.40;86.10;;;;;;4943468;29;20039;-80
2022/08/05 09:46:10;;;;;;;0.60;0.40;;;16.40;86.30;;;;;;4941086;29;20390;-79
2022/08/05 09:48:38;;;;;;;1.30;0.30;;;16.30;86.20;;;;;;4943100;29;20039;-81
2022/08/05 09:51:11;;;;;;;0.50;0.50;;;16.30;86.20;;;;;;4948491;28;20027;-80
2022/08/05 09:53:52;;;;;;;0.95;0.32;;;16.30;86.50;;;;;;4945101;28;20136;-79
2022/08/05 09:56:33;;;;;;;1.20;0.30;;;16.40;85.70;;;;;;4939240;29;20031;-81
2022/08/05 09:59:08;;;;;;;0.85;0.28;;;16.40;85.80;;;;;;4941876;29;20032;-82
2022/08/05 10:01:41;;;;;;;2.15;0.32;;;16.30;86.40;;;;;;4947755;28;20470;-80
2022/08/05 10:04:13;;;;;;;0.85;0.40;;;16.10;87.10;;;;;;4950338;29;20039;-79
2022/08/05 10:06:57;;;;;;;1.70;0.55;;;16.00;87.80;;;;;;4946404;28;20015;-79
2022/08/05 10:09:24;;;;;;;1.92;0.30;;;15.70;88.70;;;;;;4939109;28;20077;-78
2022/08/05 10:11:52;;;;;;;0.60;0.25;;;15.60;89.10;;;;;;4940938;29;20622;-79
2022/08/05 10:14:27;;;;;;;1.08;0.40;;;15.40;90.00;;;;;;4939674;28;20047;-77
2022/08/05 10:16:55;;;;;;;;;;;15.30;90.30;;;;;;4944731;29;20031;-80
2022/08/05 10:19:26;;;;;;;1.20;0.40;;;15.20;90.40;;;;;;4941769;28;19957;-80
2022/08/05 10:21:53;;;;;;;0.68;0.47;;;15.00;90.50;;;;;;4944917;29;20118;-79
2022/08/05 10:24:22;;;;;;;3.03;0.50;;;14.80;90.90;;;;;;4948601;29;20047;-79
2022/08/05 10:26:53;;;;;;;0.77;0.40;;;14.80;90.80;;;;;;4953730;28;20077;-80
2022/08/05 10:29:21;;;;;;;2.20;0.65;;;14.70;91.10;;;;;;4943525;28;20054;-79
2022/08/05 10:31:49;;;;;;;1.00;0.50;;;14.60;91.30;;;;;;4945084;29;20035;-79
2022/08/05 10:34:17;;;;;;;0.75;0.68;;;14.50;91.10;;;;;;4946872;28;20545;-81
2022/08/05 10:36:46;;;;;;;1.63;0.40;;;14.50;91.50;;;;;;4952899;28;20069;-81
2022/08/05 10:39:24;;;;;;;0.98;0.50;;;14.40;91.70;;;;;;4939095;28;20023;-80
2022/08/05 10:42:04;;;;;;;0.95;0.35;;;14.40;91.50;;;;;;4942399;28;20024;-81
2022/08/05 10:44:32;;;;;;;1.00;0.50;;;14.30;91.70;;;;;;4938326;28;20745;-79
2022/08/05 10:47:10;;;;;;;3.50;0.47;;;14.30;92.20;;;;;;4948199;28;20446;-82
2022/08/05 10:50:06;;;;;;;1.23;0.35;;;14.20;92.00;;;;;;4945701;28;20086;-81
2022/08/05 10:52:59;;;;;;;1.75;0.40;;;14.20;92.50;;;;;;4950892;29;20453;-80
2022/08/05 10:55:29;;;;;;;0.73;0.40;;;14.10;92.40;;;;;;4941804;28;20046;-80
2022/08/05 10:58:11;;;;;;;1.48;0.30;;;14.00;92.20;;;;;;4942094;28;20036;-78
2022/08/05 11:00:44;;;;;;;1.35;0.32;;;14.00;92.60;;;;;;4944120;28;20027;-81
2022/08/05 11:03:13;;;;;;;0.98;0.30;;;13.90;92.10;;;;;;4948006;28;20031;-81
2022/08/05 11:05:41;;;;;;;0.52;0.30;;;13.80;92.60;;;;;;4949627;28;20398;-82
2022/08/05 11:08:10;;;;;;;1.70;0.20;;;13.80;92.90;;;;;;4945766;28;20035;-81
2022/08/05 11:10:41;;;;;;;1.55;0.30;;;13.70;93.00;;;;;;4947807;29;20059;-79
2022/08/05 11:13:09;;;;;;;2.00;0.93;;;13.60;93.00;;;;;;4952530;28;20398;-80
2022/08/05 11:15:42;;;;;;;1.20;0.65;;;13.60;92.90;;;;;;4950566;28;20046;-80
2022/08/05 11:18:27;;;;;;;1.50;0.82;;;13.50;93.30;;;;;;4947176;28;20055;-82
2022/08/05 11:20:55;;;;;;;1.95;0.80;;;13.50;93.30;;;;;;4948921;29;20386;-81
2022/08/05 11:23:52;;;;;;;1.42;0.40;;;13.60;93.00;;;;;;4948770;29;20036;-81
2022/08/05 11:26:21;;;;;;;1.23;0.63;;;13.70;92.90;;;;;;4946843;28;20461;-80
2022/08/05 11:28:53;;;;;;;2.50;0.50;;;14.00;92.50;;;;;;4942871;28;20051;-80
2022/08/05 11:31:26;;;;;;;0.85;0.20;;;14.30;91.90;;;;;;4941411;28;20047;-79
2022/08/05 11:33:57;;;;;;;0.22;0.10;;;14.60;91.60;;;;;;4948425;28;20107;-82
2022/08/05 11:36:48;;;;;;;2.58;0.52;;;14.60;91.60;;;;;;4950322;28;20376;-80
2022/08/05 11:39:36;;;;;;;0.73;0.43;;;14.70;91.70;;;;;;4950562;28;20035;-79
2022/08/05 11:42:05;;;;;;;0.95;0.50;;;14.70;91.50;;;;;;4947941;28;20024;-78
2022/08/05 11:44:38;;;;;;;1.48;0.70;;;14.80;91.90;;;;;;4938521;28;20036;-79
2022/08/05 11:47:06;;;;;;;0.82;0.30;;;14.90;91.30;;;;;;4936483;29;20032;-79
2022/08/05 11:49:34;;;;;;;2.92;0.45;;;14.80;91.60;;;;;;4947181;28;20027;-79
2022/08/05 11:52:01;;;;;;;1.30;0.40;;;14.70;91.50;;;;;;4940760;28;20035;-80
2022/08/05 11:54:36;;;;;;;1.20;0.50;;;14.60;91.70;;;;;;4940764;28;20047;-78
2022/08/05 11:57:05;;;;;;;0.60;0.20;;;14.50;91.80;;;;;;4952447;29;20562;-78
2022/08/05 11:59:32;;;;;;;1.50;0.50;;;14.40;91.90;;;;;;4950179;28;20169;-78
2022/08/05 12:02:08;;;;;;;1.20;0.40;;;14.30;92.20;;;;;;4949856;29;20027;-78
2022/08/05 12:04:44;;;;;;;1.67;0.43;;;14.30;92.00;;;;;;4948727;28;20039;-80
2022/08/05 12:07:15;;;;;;;1.38;0.50;;;14.30;91.90;;;;;;4947154;28;20505;-79
2022/08/05 12:09:47;;;;;;;1.20;0.50;;;14.30;92.10;;;;;;4947944;28;20055;-78
2022/08/05 12:12:22;;;;;;;1.83;0.75;;;14.20;92.30;;;;;;4953611;29;20030;-79
2022/08/05 12:14:50;;;;;;;1.63;1.03;;;14.10;92.30;;;;;;4941023;28;20043;-79
2022/08/05 12:17:19;;;;;;;0.75;0.40;;;14.10;92.30;;;;;;4952521;29;20042;-79
2022/08/05 12:19:54;;;;;;;1.15;0.30;;;14.20;92.10;;;;;;4943696;28;20035;-79
2022/08/05 12:22:30;;;;;;;1.23;0.10;;;14.20;92.00;;;;;;4949441;29;20049;-78
2022/08/05 12:24:57;;;;;;;;;;;14.40;91.50;;;;;;4938915;29;20035;-78
2022/08/05 12:27:32;;;;;;;2.20;0.30;;;14.50;91.50;;;;;;4939719;29;19973;-79
2022/08/05 12:30:00;;;;;;;3.80;0.30;;;14.50;91.50;;;;;;4944368;28;20035;-78
2022/08/05 12:32:31;;;;;;;0.65;0.20;;;14.40;91.50;;;;;;4941423;29;20101;-77
2022/08/05 12:34:58;;;;;;;0.35;0.20;;;14.60;90.80;;;;;;4939492;29;20514;-78
2022/08/05 12:37:26;;;;;;;0.25;0.20;;;14.60;91.00;;;;;;4940621;29;20024;-78
2022/08/05 12:39:55;;;;;;;1.05;0.30;;;14.70;91.00;;;;;;4941016;28;20028;-81
2022/08/05 12:42:23;;;;;;;2.05;0.28;;;14.60;91.10;;;;;;4949181;29;20057;-80
2022/08/05 12:44:50;;;;;;;0.75;0.20;;;14.50;91.40;;;;;;4937099;28;20035;-79
2022/08/05 12:47:28;;;;;;;2.00;0.22;;;14.30;91.70;;;;;;4939078;28;20035;-79
2022/08/05 12:49:56;;;;;;;1.50;0.57;;;14.20;91.80;;;;;;4938590;28;20034;-83
2022/08/05 12:52:23;;;;;;;2.13;0.40;;;14.20;91.50;;;;;;4939298;28;20036;-82
2022/08/05 12:54:51;;;;;;;0.63;0.30;;;14.20;91.40;;;;;;4939444;28;20047;-82
2022/08/05 12:57:19;;;;;;;1.15;0.40;;;14.20;91.60;;;;;;4943950;28;20089;-80
2022/08/05 12:59:52;;;;;;;1.08;0.30;;;14.40;90.60;;;;;;4940847;28;20030;-80
2022/08/05 13:02:25;;;;;;;0.30;0.20;;;14.60;90.40;;;;;;4942229;28;20046;-80
2022/08/05 13:04:54;;;;;;;0.85;0.20;;;14.70;90.20;;;;;;4943259;28;20478;-82
2022/08/05 13:07:26;;;;;;;1.15;0.30;;;14.70;90.40;;;;;;4944146;28;20031;-82